Time;durP1;ratioP1;P1;durP2;ratioP2;P2;SDS_P1;SDS_P2;PMS_P1;PMS_P2;Temp;Humidity;BMP_temperature;BMP_pressure;BME280_temperature;BME280_humidity;BME280_pressure;Samples;Min_cycle;Max_cycle;Signal;HPM_P1;HPM_P2
2021/11/18 00:00:39;;;;;;;39.47;13.00;;;;;;;5.87;88.33;102380.78;5091572;28;20404;-67
2021/11/18 00:03:07;;;;;;;40.00;14.60;;;;;;;5.85;88.53;102385.28;5090762;28;20400;-67
2021/11/18 00:05:36;;;;;;;41.60;14.10;;;;;;;5.89;89.03;102384.19;5093026;28;20035;-67
2021/11/18 00:08:05;;;;;;;42.53;13.95;;;;;;;5.87;88.62;102372.06;5092751;28;20062;-67
2021/11/18 00:10:37;;;;;;;31.90;13.30;;;;;;;5.88;88.38;102376.41;5091721;28;20118;-67
2021/11/18 00:13:07;;;;;;;47.47;14.43;;;;;;;5.87;88.76;102382.59;5063966;28;20505;-67
2021/11/18 00:15:34;;;;;;;37.80;14.15;;;;;;;5.87;88.52;102385.22;5072275;28;20041;-66
2021/11/18 00:18:05;;;;;;;48.10;14.60;;;;;;;5.84;88.40;102388.88;5072367;28;20497;-67
2021/11/18 00:20:36;;;;;;;32.55;14.38;;;;;;;5.87;88.46;102391.31;5090284;28;20044;-66
2021/11/18 00:23:03;;;;;;;35.40;13.65;;;;;;;5.83;88.07;102389.81;5092559;28;20405;-67
2021/11/18 00:25:30;;;;;;;38.67;13.80;;;;;;;5.85;88.04;102395.00;5091499;28;20591;-67
2021/11/18 00:27:58;;;;;;;40.63;14.45;;;;;;;5.85;88.45;102395.84;5074622;28;20048;-67
2021/11/18 00:30:26;;;;;;;42.63;13.90;;;;;;;5.80;88.14;102382.06;5058187;28;20386;-67
2021/11/18 00:32:53;;;;;;;36.45;15.23;;;;;;;5.82;88.23;102393.38;5089393;28;20048;-67
2021/11/18 00:35:23;;;;;;;38.92;14.43;;;;;;;5.84;88.90;102396.78;5058200;28;20059;-67
2021/11/18 00:37:51;;;;;;;37.55;13.80;;;;;;;5.90;88.44;102388.53;5074656;28;20047;-67
2021/11/18 00:40:24;;;;;;;33.67;14.15;;;;;;;5.85;87.76;102395.00;5074486;28;20056;-67
2021/11/18 00:42:51;;;;;;;39.83;13.75;;;;;;;5.83;87.71;102388.97;5092166;28;20123;-67
2021/11/18 00:45:21;;;;;;;33.13;14.43;;;;;;;5.81;88.76;102391.66;5091470;28;20070;-67
2021/11/18 00:47:50;;;;;;;37.95;13.65;;;;;;;5.83;88.71;102394.22;5092157;28;20412;-67
2021/11/18 00:50:19;;;;;;;42.80;14.90;;;;;;;5.83;88.48;102396.88;5095145;28;20085;-66
2021/11/18 00:52:46;;;;;;;45.05;14.85;;;;;;;5.85;88.45;102403.72;5094706;28;20493;-66
2021/11/18 00:55:14;;;;;;;36.97;14.68;;;;;;;5.81;88.75;102402.22;5095899;28;20043;-67
2021/11/18 00:57:42;;;;;;;41.75;13.88;;;;;;;5.82;88.62;102400.41;5094897;28;20044;-67
2021/11/18 01:00:17;;;;;;;38.58;14.57;;;;;;;5.86;88.57;102401.97;5094820;28;20052;-67
2021/11/18 01:02:44;;;;;;;36.47;14.10;;;;;;;5.80;88.59;102405.75;5095750;28;20044;-66
2021/11/18 01:05:13;;;;;;;39.03;13.80;;;;;;;5.73;88.36;102393.84;5094011;28;20120;-67
2021/11/18 01:07:42;;;;;;;37.42;14.77;;;;;;;5.73;87.97;102400.00;5095667;28;20048;-67
2021/11/18 01:10:14;;;;;;;38.25;14.38;;;;;;;5.72;88.32;102408.81;5078447;28;20048;-67
2021/11/18 01:12:44;;;;;;;32.90;13.75;;;;;;;5.74;88.64;102408.72;5078272;28;20400;-67
2021/11/18 01:15:15;;;;;;;39.30;15.02;;;;;;;5.67;88.33;102407.34;5094653;28;20067;-67
2021/11/18 01:17:43;;;;;;;38.42;14.68;;;;;;;5.61;88.28;102411.16;5094665;28;20089;-67
2021/11/18 01:20:12;;;;;;;34.35;13.70;;;;;;;5.62;88.30;102410.25;5094406;28;20044;-66
2021/11/18 01:22:40;;;;;;;38.40;15.20;;;;;;;5.58;88.15;102412.19;5094353;28;20044;-66
2021/11/18 01:25:09;;;;;;;47.75;15.48;;;;;;;5.55;87.83;102417.59;5078858;28;20067;-67
2021/11/18 01:27:43;;;;;;;39.97;13.77;;;;;;;5.52;88.02;102422.19;5078466;28;20040;-67
2021/11/18 01:30:22;;;;;;;44.55;14.55;;;;;;;5.50;87.47;102421.41;5094449;28;20063;-67
2021/11/18 01:32:50;;;;;;;40.38;14.57;;;;;;;5.42;87.68;102426.22;5095269;28;20038;-67
2021/11/18 01:35:24;;;;;;;31.33;14.07;;;;;;;5.38;87.33;102429.03;5092695;28;20044;-67
2021/11/18 01:37:50;;;;;;;36.20;14.65;;;;;;;5.32;87.76;102417.94;5094081;28;20390;-67
2021/11/18 01:40:21;;;;;;;38.63;14.88;;;;;;;5.31;87.68;102432.03;5077507;28;20503;-67
2021/11/18 01:42:52;;;;;;;43.10;15.65;;;;;;;5.25;88.05;102435.81;5095245;28;20203;-67
2021/11/18 01:45:23;;;;;;;40.03;14.65;;;;;;;5.23;88.55;102434.22;5093647;28;20067;-67
2021/11/18 01:47:51;;;;;;;48.10;16.17;;;;;;;5.24;88.38;102441.16;5095220;28;20549;-67
2021/11/18 01:50:25;;;;;;;52.55;15.38;;;;;;;5.22;88.49;102437.75;5095268;28;20282;-67
2021/11/18 01:52:54;;;;;;;40.23;15.00;;;;;;;5.22;88.26;102438.63;5094695;28;20435;-67
2021/11/18 01:55:24;;;;;;;39.45;14.85;;;;;;;5.21;88.43;102428.19;5094222;28;20068;-67
2021/11/18 01:57:53;;;;;;;43.20;15.70;;;;;;;5.21;88.42;102425.56;5094660;28;20040;-66
2021/11/18 02:00:45;;;;;;;40.92;16.67;;;;;;;5.22;88.15;102419.34;5095144;28;20044;-67
2021/11/18 02:03:12;;;;;;;38.60;15.13;;;;;;;5.21;88.13;102426.38;5093292;28;20132;-66
2021/11/18 02:06:05;;;;;;;37.88;15.10;;;;;;;5.20;88.42;102422.03;5091849;28;20497;-67
2021/11/18 02:08:33;;;;;;;36.60;14.93;;;;;;;5.21;88.61;102422.91;5085497;28;20062;-67
2021/11/18 02:11:33;;;;;;;35.38;14.90;;;;;;;5.22;88.46;102428.09;5078088;28;20072;-67
2021/11/18 02:14:03;;;;;;;38.35;14.15;;;;;;;5.17;88.13;102424.84;5093162;28;20040;-67
2021/11/18 02:16:30;;;;;;;39.13;15.15;;;;;;;5.18;88.37;102431.81;5094458;28;20400;-67
2021/11/18 02:18:59;;;;;;;44.13;15.50;;;;;;;5.19;88.11;102433.50;5094397;28;20048;-67
2021/11/18 02:21:26;;;;;;;39.67;14.73;;;;;;;5.19;88.76;102433.50;5094490;28;20093;-67
2021/11/18 02:23:57;;;;;;;44.78;14.98;;;;;;;5.22;88.11;102435.13;5094165;28;20400;-66
2021/11/18 02:26:26;;;;;;;39.28;13.70;;;;;;;5.20;88.34;102440.47;5093382;28;20097;-67
2021/11/18 02:28:57;;;;;;;40.45;15.65;;;;;;;5.15;88.49;102445.97;5092785;28;20048;-67
2021/11/18 02:31:35;;;;;;;50.22;15.48;;;;;;;5.15;88.33;102455.66;5094577;28;20058;-67
2021/11/18 02:34:12;;;;;;;42.50;14.98;;;;;;;5.15;87.80;102460.91;5092419;28;20093;-67
2021/11/18 02:36:39;;;;;;;38.83;14.20;;;;;;;5.14;87.71;102461.84;5094313;28;20101;-67
2021/11/18 02:39:07;;;;;;;41.45;14.30;;;;;;;5.11;87.90;102470.75;5094205;28;20097;-67
2021/11/18 02:41:35;;;;;;;39.08;14.55;;;;;;;5.10;87.81;102470.81;5092586;28;20044;-67
2021/11/18 02:44:05;;;;;;;36.05;14.40;;;;;;;5.00;88.15;102457.25;5092767;28;20517;-67
2021/11/18 02:46:34;;;;;;;38.45;13.88;;;;;;;5.08;87.89;102472.66;5093064;28;20052;-66
2021/11/18 02:49:02;;;;;;;42.17;14.18;;;;;;;5.02;87.41;102467.69;5093860;28;20071;-67
2021/11/18 02:51:29;;;;;;;42.40;15.30;;;;;;;5.03;87.96;102458.88;5093918;28;20054;-67
2021/11/18 02:54:01;;;;;;;33.17;13.70;;;;;;;5.05;88.63;102455.25;5093357;28;20038;-67
2021/11/18 02:56:32;;;;;;;39.63;14.15;;;;;;;5.00;87.71;102470.41;5076616;28;20048;-66
2021/11/18 02:59:00;;;;;;;38.65;14.63;;;;;;;4.93;87.99;102459.34;5092617;28;20047;-67
2021/11/18 03:01:30;;;;;;;39.45;14.13;;;;;;;4.93;87.81;102472.50;5092368;28;20056;-67
2021/11/18 03:04:00;;;;;;;41.15;14.88;;;;;;;4.92;87.85;102462.88;5092447;28;20118;-67
2021/11/18 03:06:28;;;;;;;37.92;14.15;;;;;;;4.93;88.17;102466.34;5091699;28;20054;-67
2021/11/18 03:08:56;;;;;;;34.55;13.93;;;;;;;4.93;88.05;102461.97;5092496;28;20040;-67
2021/11/18 03:11:25;;;;;;;35.67;13.95;;;;;;;4.91;88.07;102455.94;5075078;28;20119;-67
2021/11/18 03:13:53;;;;;;;39.30;14.38;;;;;;;4.93;88.20;102463.72;5075833;28;20036;-67
2021/11/18 03:16:21;;;;;;;38.17;13.93;;;;;;;4.91;88.12;102468.22;5075886;28;20040;-67
2021/11/18 03:18:49;;;;;;;53.17;15.50;;;;;;;4.91;87.70;102470.84;5075816;28;20068;-67
2021/11/18 03:21:20;;;;;;;50.63;14.45;;;;;;;4.90;87.95;102467.38;5093517;28;20044;-67
2021/11/18 03:23:52;;;;;;;43.33;13.80;;;;;;;4.91;87.47;102471.72;5093267;28;20036;-67
2021/11/18 03:26:22;;;;;;;38.03;14.25;;;;;;;4.91;88.17;102465.59;5109069;28;20075;-67
2021/11/18 03:28:49;;;;;;;36.38;14.30;;;;;;;4.91;87.46;102462.97;5092108;28;20040;-67
2021/11/18 03:31:17;;;;;;;38.35;13.98;;;;;;;4.91;87.96;102449.81;5076927;28;20131;-67
2021/11/18 03:33:53;;;;;;;40.28;14.55;;;;;;;4.90;88.03;102454.22;5091278;28;20071;-67
2021/11/18 03:36:22;;;;;;;45.88;14.45;;;;;;;4.90;88.47;102459.47;5093238;28;20050;-67
2021/11/18 03:38:51;;;;;;;46.38;15.02;;;;;;;4.89;87.98;102470.06;5093142;28;20046;-67
2021/11/18 03:41:29;;;;;;;49.92;14.40;;;;;;;4.89;87.71;102481.44;5093144;28;20070;-66
2021/11/18 03:43:59;;;;;;;36.65;13.52;;;;;;;4.86;87.49;102478.09;5092832;28;20040;-67
2021/11/18 03:46:32;;;;;;;43.80;14.73;;;;;;;4.86;88.43;102472.84;5093182;28;20044;-67
2021/11/18 03:49:00;;;;;;;35.88;14.00;;;;;;;4.83;88.17;102468.59;5091932;28;20044;-66
2021/11/18 03:51:28;;;;;;;39.95;14.35;;;;;;;4.80;87.81;102468.75;5091861;28;20051;-67
2021/11/18 03:53:56;;;;;;;40.72;14.35;;;;;;;4.82;87.72;102469.53;5092671;28;20044;-67
2021/11/18 03:56:28;;;;;;;38.38;13.90;;;;;;;4.80;87.95;102474.88;5074884;28;20052;-66
2021/11/18 03:58:55;;;;;;;40.90;14.27;;;;;;;4.85;88.29;102474.63;5075357;28;20036;-66
2021/11/18 04:01:22;;;;;;;45.15;15.02;;;;;;;4.80;88.08;102472.25;5074618;28;20044;-67
2021/11/18 04:03:54;;;;;;;44.10;15.05;;;;;;;4.76;88.36;102475.91;5075059;28;20064;-66
2021/11/18 04:06:22;;;;;;;41.33;15.82;;;;;;;4.80;88.29;102480.13;5090122;28;20113;-68
2021/11/18 04:08:58;;;;;;;44.22;13.48;;;;;;;4.84;88.73;102467.69;5095723;28;20040;-67
2021/11/18 04:11:26;;;;;;;41.53;14.40;;;;;;;4.83;88.49;102465.97;5074974;28;20044;-66
2021/11/18 04:13:56;;;;;;;44.92;15.02;;;;;;;4.86;89.00;102480.72;5092632;28;20036;-66
2021/11/18 04:16:24;;;;;;;49.83;15.25;;;;;;;4.74;88.91;102485.66;5092798;28;20048;-67
2021/11/18 04:18:52;;;;;;;60.58;16.25;;;;;;;4.52;90.15;102493.72;5091790;28;20075;-67
2021/11/18 04:21:19;;;;;;;55.75;16.95;;;;;;;4.72;89.77;102484.03;5092559;28;20040;-66
2021/11/18 04:23:46;;;;;;;48.45;15.25;;;;;;;4.92;89.76;102485.72;5093979;28;20123;-67
2021/11/18 04:26:13;;;;;;;48.00;15.85;;;;;;;4.93;89.05;102480.38;5095684;28;20400;-67
2021/11/18 04:28:44;;;;;;;52.42;16.20;;;;;;;5.04;89.54;102485.13;5096630;28;20051;-67
2021/11/18 04:31:16;;;;;;;42.85;15.13;;;;;;;5.04;89.24;102489.50;5095749;28;20044;-67
2021/11/18 04:33:44;;;;;;;45.28;15.52;;;;;;;5.05;88.86;102494.69;5093771;28;20040;-67
2021/11/18 04:36:13;;;;;;;48.55;14.98;;;;;;;4.99;88.82;102490.59;5095094;28;20159;-66
2021/11/18 04:38:43;;;;;;;42.30;15.32;;;;;;;4.89;88.44;102496.38;5095260;28;20558;-66
2021/11/18 04:41:12;;;;;;;47.53;15.90;;;;;;;4.95;89.00;102496.09;5096619;28;20105;-67
2021/11/18 04:43:42;;;;;;;47.40;15.63;;;;;;;4.98;88.49;102502.06;5096201;28;20489;-67
2021/11/18 04:46:10;;;;;;;61.90;16.13;;;;;;;4.96;87.85;102509.16;5095445;28;20040;-67
2021/11/18 04:48:39;;;;;;;59.22;15.80;;;;;;;4.92;88.20;102502.34;5095176;28;20472;-67
2021/11/18 04:51:09;;;;;;;46.97;14.65;;;;;;;4.92;88.18;102501.50;5096235;28;20492;-67
2021/11/18 04:53:37;;;;;;;50.67;14.93;;;;;;;4.95;88.04;102510.09;5078328;28;20134;-67
2021/11/18 04:56:06;;;;;;;47.30;16.33;;;;;;;4.94;88.01;102504.91;5096182;28;20572;-67
2021/11/18 04:58:40;;;;;;;49.72;16.30;;;;;;;4.92;88.37;102512.84;5095066;28;20046;-67
2021/11/18 05:01:09;;;;;;;45.60;15.40;;;;;;;4.94;87.94;102513.63;5094443;28;20083;-67
2021/11/18 05:03:37;;;;;;;44.40;14.90;;;;;;;4.95;88.27;102519.78;5078103;28;20146;-67
2021/11/18 05:06:04;;;;;;;54.53;15.85;;;;;;;4.93;88.06;102514.56;5096048;28;20044;-67
2021/11/18 05:08:31;;;;;;;50.85;16.83;;;;;;;5.05;88.63;102517.53;5094063;28;20091;-67
2021/11/18 05:11:00;;;;;;;50.33;17.23;;;;;;;5.07;88.68;102518.31;5094636;28;20048;-66
2021/11/18 05:13:29;;;;;;;46.45;16.92;;;;;;;5.10;88.19;102505.00;5095563;28;20051;-67
2021/11/18 05:16:04;;;;;;;52.45;16.58;;;;;;;5.09;88.84;102506.78;5078373;28;20453;-67
2021/11/18 05:18:32;;;;;;;55.10;17.13;;;;;;;5.17;88.61;102495.91;5094496;28;20075;-67
2021/11/18 05:21:00;;;;;;;58.95;17.15;;;;;;;5.25;89.40;102492.88;5095682;28;20286;-67
2021/11/18 05:23:27;;;;;;;44.95;17.52;;;;;;;5.33;89.29;102498.59;5094206;28;20356;-67
2021/11/18 05:25:58;;;;;;;52.25;17.88;;;;;;;5.50;89.63;102489.84;5095419;28;20077;-67
2021/11/18 05:28:26;;;;;;;55.17;17.05;;;;;;;5.57;89.22;102494.72;5094343;28;20507;-67
2021/11/18 05:30:53;;;;;;;62.40;16.83;;;;;;;5.67;89.14;102488.97;5095537;28;20074;-67
2021/11/18 05:33:23;;;;;;;56.15;17.98;;;;;;;5.82;88.08;102497.88;5077534;28;20063;-67
2021/11/18 05:35:50;;;;;;;49.90;17.08;;;;;;;5.86;87.68;102496.78;5094808;28;20072;-67
2021/11/18 05:38:20;;;;;;;58.28;18.15;;;;;;;5.79;88.51;102480.44;5076267;28;20750;-67
2021/11/18 05:40:48;;;;;;;51.85;17.15;;;;;;;5.90;87.86;102482.53;5094062;28;20875;-67
2021/11/18 05:43:20;;;;;;;55.27;18.23;;;;;;;5.80;88.20;102481.28;5094872;28;20114;-67
2021/11/18 05:45:47;;;;;;;54.30;17.63;;;;;;;5.87;87.99;102480.88;5060837;28;20286;-67
2021/11/18 05:48:17;;;;;;;51.78;17.23;;;;;;;5.88;88.45;102485.22;5094271;28;20056;-67
2021/11/18 05:50:50;;;;;;;44.20;16.88;;;;;;;5.88;88.22;102476.50;5095134;28;20195;-67
2021/11/18 05:53:25;;;;;;;51.88;17.92;;;;;;;5.87;88.51;102494.06;5093866;28;20051;-67
2021/11/18 05:55:53;;;;;;;62.50;17.38;;;;;;;6.04;87.31;102497.59;5095181;28;20094;-66
2021/11/18 05:58:22;;;;;;;54.55;18.42;;;;;;;5.91;88.05;102494.75;5077202;28;20429;-67
2021/11/18 06:00:49;;;;;;;61.60;17.75;;;;;;;5.88;88.31;102481.75;5093658;28;20546;-67
2021/11/18 06:03:19;;;;;;;56.03;17.45;;;;;;;6.09;87.60;102493.81;5073491;28;20041;-67
2021/11/18 06:05:48;;;;;;;55.88;17.73;;;;;;;6.09;87.71;102491.19;5089745;28;20040;-67
2021/11/18 06:08:15;;;;;;;58.72;18.40;;;;;;;6.22;86.68;102490.50;5081920;28;20400;-67
2021/11/18 06:10:43;;;;;;;54.78;16.88;;;;;;;6.10;87.55;102500.78;5110081;28;20515;-67
2021/11/18 06:13:11;;;;;;;59.78;18.73;;;;;;;6.11;87.20;102496.34;5094593;28;20046;-67
2021/11/18 06:15:39;;;;;;;55.33;17.73;;;;;;;6.07;87.52;102498.31;5093349;28;20089;-67
2021/11/18 06:18:09;;;;;;;47.90;16.38;;;;;;;6.06;88.18;102499.25;5092974;28;20044;-67
2021/11/18 06:20:37;;;;;;;49.03;17.20;;;;;;;6.10;87.54;102506.06;5093370;28;20053;-67
2021/11/18 06:23:07;;;;;;;60.67;18.45;;;;;;;6.15;87.80;102511.94;5093311;28;20048;-67
2021/11/18 06:25:36;;;;;;;51.67;17.52;;;;;;;5.97;87.90;102526.09;5109962;28;20066;-67
2021/11/18 06:28:04;;;;;;;50.17;19.02;;;;;;;6.04;88.20;102532.75;5094173;28;20063;-66
2021/11/18 06:30:36;;;;;;;52.78;18.13;;;;;;;6.06;88.73;102525.59;5094079;28;20042;-66
2021/11/18 06:33:07;;;;;;;55.55;17.63;;;;;;;6.07;87.93;102526.44;5093423;28;20443;-67
2021/11/18 06:35:35;;;;;;;66.05;20.80;;;;;;;6.10;88.34;102524.50;5093910;28;20036;-66
2021/11/18 06:38:05;;;;;;;49.25;17.55;;;;;;;6.13;88.46;102534.00;5094194;28;20405;-67
2021/11/18 06:40:32;;;;;;;47.25;18.50;;;;;;;6.14;87.99;102531.28;5093934;28;20074;-67
2021/11/18 06:43:01;;;;;;;51.55;17.25;;;;;;;6.17;88.29;102538.22;5075978;28;20052;-67
2021/11/18 06:45:36;;;;;;;53.38;18.42;;;;;;;6.14;88.50;102530.44;5088016;28;20771;-66
2021/11/18 06:48:09;;;;;;;54.03;17.95;;;;;;;6.19;88.02;102510.00;5093489;28;20446;-66
2021/11/18 06:50:36;;;;;;;64.63;18.52;;;;;;;6.17;88.14;102517.13;5092115;28;20040;-66
2021/11/18 06:53:08;;;;;;;59.50;18.35;;;;;;;6.15;88.30;102527.75;5092215;28;20148;-66
2021/11/18 06:55:36;;;;;;;57.78;17.83;;;;;;;6.13;88.26;102531.38;5091762;28;20115;-67
2021/11/18 06:58:04;;;;;;;62.08;18.13;;;;;;;6.15;88.85;102535.66;5093630;28;20040;-66
2021/11/18 07:00:31;;;;;;;54.05;18.33;;;;;;;6.26;88.48;102537.72;5075737;28;20044;-66
2021/11/18 07:02:58;;;;;;;56.53;17.75;;;;;;;6.39;87.39;102542.34;5093440;28;20058;-66
2021/11/18 07:05:26;;;;;;;51.22;17.50;;;;;;;6.36;87.55;102545.97;5093349;28;20035;-66
2021/11/18 07:07:54;;;;;;;55.08;17.95;;;;;;;6.31;88.35;102543.59;5090632;28;20442;-66
2021/11/18 07:10:22;;;;;;;53.60;18.27;;;;;;;6.42;87.34;102544.78;5093306;28;20146;-66
2021/11/18 07:12:59;;;;;;;53.22;17.67;;;;;;;6.37;87.35;102547.69;5076956;28;20044;-66
2021/11/18 07:15:27;;;;;;;61.33;17.52;;;;;;;6.37;88.23;102528.34;5075614;28;20106;-66
2021/11/18 07:17:57;;;;;;;53.42;16.90;;;;;;;6.37;88.23;102537.16;5093230;28;20048;-67
2021/11/18 07:20:26;;;;;;;54.03;18.20;;;;;;;6.37;88.23;102550.31;5092402;28;20139;-66
2021/11/18 07:22:55;;;;;;;57.15;18.08;;;;;;;6.43;88.56;102549.97;5093075;28;20070;-66
2021/11/18 07:25:42;;;;;;;53.05;17.73;;;;;;;6.42;88.27;102553.56;5090667;28;20040;-68
2021/11/18 07:28:11;;;;;;;53.95;17.38;;;;;;;6.45;88.05;102557.81;5092083;28;20058;-66
2021/11/18 07:30:38;;;;;;;52.35;17.55;;;;;;;6.46;88.10;102560.38;5082671;28;20052;-66
2021/11/18 07:33:05;;;;;;;51.75;17.63;;;;;;;6.48;88.35;102565.56;5092157;28;20043;-68
2021/11/18 07:35:32;;;;;;;54.63;18.55;;;;;;;6.55;87.77;102569.56;5091266;28;20126;-66
2021/11/18 07:37:59;;;;;;;47.80;16.85;;;;;;;6.57;87.52;102572.97;5091840;28;20048;-66
2021/11/18 07:40:34;;;;;;;56.70;16.85;;;;;;;6.59;88.03;102567.63;5093163;28;20056;-66
2021/11/18 07:43:12;;;;;;;50.33;16.60;;;;;;;6.64;87.75;102562.94;5092038;28;20044;-67
2021/11/18 07:46:06;;;;;;;57.20;16.75;;;;;;;6.69;87.57;102580.22;5080505;27;1544574;-66
2021/11/18 07:48:40;;;;;;;46.60;16.40;;;;;;;6.73;87.79;102573.84;5113738;28;20086;-67
2021/11/18 07:51:09;;;;;;;51.83;16.65;;;;;;;6.77;87.27;102578.94;5130020;28;20146;-66
2021/11/18 07:53:37;;;;;;;51.50;16.95;;;;;;;6.81;87.49;102583.97;5128039;27;20058;-67
2021/11/18 07:56:04;;;;;;;53.90;16.75;;;;;;;6.88;86.96;102585.34;5110078;28;20074;-67
2021/11/18 07:58:35;;;;;;;48.85;16.88;;;;;;;6.97;87.20;102583.09;5109249;28;20043;-67
2021/11/18 08:01:03;;;;;;;57.78;16.85;;;;;;;6.98;86.67;102582.19;5109246;28;20044;-67
2021/11/18 08:03:33;;;;;;;47.92;16.52;;;;;;;6.99;86.46;102581.25;5108841;28;20400;-67
2021/11/18 08:06:24;;;;;;;48.85;15.45;;;;;;;7.05;86.88;102578.25;5104776;28;20047;-63
2021/11/18 08:08:56;;;;;;;51.22;16.70;;;;;;;7.09;86.52;102566.59;5106649;28;20497;-62
2021/11/18 08:11:37;;;;;;;55.70;15.65;;;;;;;7.05;86.39;102584.38;5095811;28;20041;-62
2021/11/18 08:14:06;;;;;;;47.70;15.70;;;;;;;7.11;85.60;102576.13;5098180;28;20044;-62
2021/11/18 08:16:34;;;;;;;50.45;16.73;;;;;;;7.08;86.32;102572.81;5097737;28;20070;-62
2021/11/18 08:19:04;;;;;;;43.80;15.55;;;;;;;7.05;86.10;102580.91;5092713;28;20074;-62
2021/11/18 08:21:32;;;;;;;50.28;15.52;;;;;;;7.05;86.59;102573.81;5092818;28;20082;-62
2021/11/18 08:24:00;;;;;;;55.47;14.70;;;;;;;7.07;86.81;102566.66;5104596;28;20051;-62
2021/11/18 08:26:32;;;;;;;42.70;14.90;;;;;;;6.98;86.65;102580.38;5091863;28;20509;-62
2021/11/18 08:29:07;;;;;;;52.55;17.08;;;;;;;6.96;87.05;102579.63;5096416;28;20444;-66
2021/11/18 08:31:36;;;;;;;43.28;14.68;;;;;;;6.94;87.46;102586.78;5073081;28;20036;-67
2021/11/18 08:34:23;;;;;;;50.70;15.57;;;;;;;6.96;87.12;102590.16;5100539;28;20147;-66
2021/11/18 08:36:53;;;;;;;48.95;14.63;;;;;;;7.09;87.05;102593.84;5058328;28;20046;-67
2021/11/18 08:39:22;;;;;;;51.28;15.77;;;;;;;7.13;87.22;102598.94;5104052;28;20071;-67
2021/11/18 08:41:53;;;;;;;49.35;15.07;;;;;;;7.17;87.44;102605.72;5100869;28;20404;-67
2021/11/18 08:44:24;;;;;;;44.42;15.70;;;;;;;7.20;87.10;102619.63;5097236;28;20078;-67
2021/11/18 08:46:52;;;;;;;51.67;15.95;;;;;;;7.29;86.62;102615.63;5092763;28;20051;-67
2021/11/18 08:49:19;;;;;;;53.60;15.95;;;;;;;7.49;86.53;102625.91;5101602;28;20040;-66
2021/11/18 08:51:47;;;;;;;48.85;15.90;;;;;;;7.49;85.65;102627.69;5099246;28;20138;-67
2021/11/18 08:54:20;;;;;;;52.55;15.60;;;;;;;7.62;85.67;102622.53;5079319;28;20101;-67
2021/11/18 08:56:50;;;;;;;57.20;17.20;;;;;;;7.74;85.51;102626.28;5076500;28;20076;-67
2021/11/18 08:59:20;;;;;;;48.95;16.27;;;;;;;7.79;85.96;102629.50;5081151;28;20042;-67
2021/11/18 09:01:53;;;;;;;45.88;15.75;;;;;;;7.84;85.58;102632.72;5089246;28;20040;-67
2021/11/18 09:04:23;;;;;;;48.88;16.42;;;;;;;7.89;85.44;102630.66;5085214;28;20737;-67
2021/11/18 09:06:51;;;;;;;56.92;18.25;;;;;;;7.94;85.06;102631.22;5058881;28;20127;-67
2021/11/18 09:09:22;;;;;;;43.78;16.13;;;;;;;7.94;84.50;102633.88;5090341;28;20029;-66
2021/11/18 09:11:52;;;;;;;47.38;17.25;;;;;;;7.98;84.92;102624.81;5079985;28;20097;-66
2021/11/18 09:14:23;;;;;;;47.25;16.35;;;;;;;8.00;84.73;102619.44;5040639;28;20512;-67
2021/11/18 09:16:53;;;;;;;46.50;16.55;;;;;;;8.02;84.52;102629.00;5088459;28;21776;-66
2021/11/18 09:19:32;;;;;;;49.15;16.13;;;;;;;8.01;84.45;102629.09;5079878;28;20061;-67
2021/11/18 09:22:03;;;;;;;48.22;16.58;;;;;;;8.12;83.64;102634.56;5092200;28;20036;-67
2021/11/18 09:24:45;;;;;;;53.33;18.02;;;;;;;8.06;84.30;102641.09;5087264;28;20493;-67
2021/11/18 09:27:19;;;;;;;51.42;17.48;;;;;;;8.20;83.85;102631.47;5085470;28;20502;-66
2021/11/18 09:29:47;;;;;;;51.85;16.58;;;;;;;8.24;84.08;102628.56;5090669;28;20036;-67
2021/11/18 09:32:21;;;;;;;44.90;16.65;;;;;;;8.33;83.68;102637.75;5086552;28;20400;-67
2021/11/18 09:35:01;;;;;;;51.45;16.42;;;;;;;8.34;83.68;102628.84;5089122;28;20497;-67
2021/11/18 09:37:29;;;;;;;46.33;16.30;;;;;;;8.36;84.09;102628.75;5088309;28;20047;-66
2021/11/18 09:39:55;;;;;;;43.08;16.80;;;;;;;8.47;83.43;102622.84;5076195;28;20048;-67
2021/11/18 09:42:30;;;;;;;51.92;16.55;;;;;;;8.48;83.32;102611.31;5087542;28;20127;-66
2021/11/18 09:45:15;;;;;;;42.90;16.13;;;;;;;8.45;83.58;102621.13;5092590;28;20131;-67
2021/11/18 09:48:12;;;;;;;45.40;16.38;;;;;;;8.51;83.30;102611.13;5063455;28;20093;-67
2021/11/18 09:50:58;;;;;;;48.47;14.38;;;;;;;8.62;82.29;102616.59;5071908;28;20401;-67
2021/11/18 09:54:06;;;;;;;42.28;14.68;;;;;;;8.89;79.60;102626.41;5084069;28;20069;-67
2021/11/18 09:56:55;;;;;;;45.20;14.25;;;;;;;8.72;80.51;102627.47;5086202;28;20082;-67
2021/11/18 10:00:02;;;;;;;44.97;14.45;;;;;;;8.77;80.51;102626.22;5076128;28;20043;-67
2021/11/18 10:05:33;;;;;;;49.50;14.48;;;;;;;8.81;81.20;102625.09;5113055;27;20338;-66
2021/11/18 10:08:11;;;;;;;50.33;13.82;;;;;;;8.88;80.84;102644.09;5107329;28;20041;-67
2021/11/18 10:10:49;;;;;;;49.85;13.98;;;;;;;8.76;80.75;102636.91;5114427;28;20089;-66
2021/11/18 10:16:17;;;;;;;53.50;13.50;;;;;;;9.01;79.99;102650.28;5111423;27;20124;-65
2021/11/18 10:18:49;;;;;;;46.97;12.77;;;;;;;8.91;79.12;102643.88;5076779;28;20085;-65
2021/11/18 10:21:27;;;;;;;50.67;14.17;;;;;;;9.06;78.55;102643.84;5054345;28;20133;-66
2021/11/18 10:24:00;;;;;;;38.50;12.13;;;;;;;9.17;78.21;102642.22;5091547;28;20298;-66
2021/11/18 10:26:32;;;;;;;40.22;12.40;;;;;;;9.14;78.69;102641.56;5063959;28;20405;-66
2021/11/18 10:29:08;;;;;;;44.45;12.55;;;;;;;9.22;78.36;102634.84;5055214;28;20048;-66
2021/11/18 10:31:58;;;;;;;45.63;13.07;;;;;;;9.21;79.31;102633.13;5075698;28;20044;-66
2021/11/18 10:34:43;;;;;;;44.08;13.40;;;;;;;9.46;77.83;102623.59;5053238;28;20147;-66
2021/11/18 10:37:31;;;;;;;43.50;12.73;;;;;;;9.61;76.29;102633.19;5082107;28;20048;-66
2021/11/18 10:40:15;;;;;;;43.15;12.57;;;;;;;9.78;75.50;102626.75;5066399;28;20052;-66
2021/11/18 10:42:47;;;;;;;56.15;14.45;;;;;;;10.42;74.27;102615.38;5086761;28;20484;-65
2021/11/18 10:45:37;;;;;;;41.90;12.80;;;;;;;11.43;71.81;102627.66;5071567;28;20497;-66
2021/11/18 10:48:16;;;;;;;46.40;13.05;;;;;;;12.71;65.15;102615.22;5071207;28;20044;-66
2021/11/18 10:50:51;;;;;;;39.97;12.40;;;;;;;13.94;61.38;102619.31;5075006;28;20577;-66
2021/11/18 10:53:29;;;;;;;44.75;13.35;;;;;;;13.94;60.28;102630.00;5069053;28;20131;-66
2021/11/18 10:58:39;;;;;;;39.47;12.50;;;;;;;13.59;61.11;102622.31;5110131;27;20359;-67
2021/11/18 11:01:30;;;;;;;38.08;11.40;;;;;;;13.25;61.76;102625.06;5058410;28;20044;-66
2021/11/18 11:04:00;;;;;;;42.50;11.47;;;;;;;12.98;63.03;102614.81;5080804;28;20047;-67
2021/11/18 11:06:29;;;;;;;38.22;11.88;;;;;;;12.98;62.12;102620.16;5106983;28;20043;-67
2021/11/18 11:09:14;;;;;;;42.13;11.20;;;;;;;13.61;62.24;102615.84;5075056;28;20041;-66
2021/11/18 11:11:59;;;;;;;52.30;11.77;;;;;;;13.05;63.55;102618.69;5095898;28;20695;-67
2021/11/18 11:14:51;;;;;;;45.08;10.73;;;;;;;13.23;62.19;102609.19;5080118;28;20040;-68
2021/11/18 11:17:47;;;;;;;38.40;11.73;;;;;;;13.85;60.07;102609.44;5105904;28;20396;-67
2021/11/18 11:20:24;;;;;;;42.13;10.30;;;;;;;14.05;59.47;102610.41;5098135;28;20077;-67
2021/11/18 11:23:10;;;;;;;44.30;11.57;;;;;;;14.65;58.02;102601.72;5105608;28;20043;-67
2021/11/18 11:26:09;;;;;;;36.92;10.35;;;;;;;15.72;54.33;102607.19;5082896;28;20039;-66
2021/11/18 11:28:54;;;;;;;33.28;9.65;;;;;;;15.78;53.80;102605.78;5080944;28;20047;-66
2021/11/18 11:31:33;;;;;;;34.85;9.13;;;;;;;15.69;54.50;102608.28;5085124;28;20040;-67
2021/11/18 11:34:25;;;;;;;37.53;9.48;;;;;;;14.91;56.35;102610.91;5078779;28;20115;-67
2021/11/18 11:37:11;;;;;;;32.83;8.90;;;;;;;14.18;58.78;102610.19;5104997;28;20036;-67
2021/11/18 11:39:56;;;;;;;36.33;8.52;;;;;;;13.68;59.72;102610.00;5087976;28;20443;-67
2021/11/18 11:45:37;;;;;;;37.97;8.00;;;;;;;13.91;60.01;102600.06;5125540;27;20912;-66
2021/11/18 11:48:36;;;;;;;42.25;8.38;;;;;;;13.60;60.49;102597.31;5125011;27;20454;-67
2021/11/18 11:51:35;;;;;;;33.90;7.38;;;;;;;13.82;60.07;102597.22;5107190;27;20039;-67